createdAt,value
2019-01-13T00:01:13.074Z,14.47
2019-01-13T00:03:43.311Z,17.80
2019-01-13T00:06:13.677Z,18.03
2019-01-13T00:08:44.003Z,20.10
2019-01-13T00:11:15.419Z,20.90
2019-01-13T00:13:45.839Z,17.13
2019-01-13T00:16:16.247Z,10.73
2019-01-13T00:18:46.623Z,14.23
2019-01-13T00:21:17.031Z,14.37
2019-01-13T00:23:47.379Z,14.03
2019-01-13T00:26:17.712Z,14.10
2019-01-13T00:28:48.051Z,14.27
2019-01-13T00:31:18.394Z,16.10
2019-01-13T00:33:48.842Z,15.73
2019-01-13T00:36:19.175Z,14.67
2019-01-13T00:38:49.544Z,14.23
2019-01-13T00:41:19.883Z,13.03
2019-01-13T00:43:50.261Z,11.77
2019-01-13T00:46:20.671Z,12.33
2019-01-13T00:48:51.011Z,13.83
2019-01-13T00:51:21.375Z,16.47
2019-01-13T00:53:51.715Z,13.90
2019-01-13T00:56:22.083Z,16.97
2019-01-13T00:58:52.791Z,14.63
2019-01-13T01:01:23.526Z,15.20
2019-01-13T01:03:53.859Z,16.27
2019-01-13T01:06:24.270Z,17.30
2019-01-13T01:08:54.603Z,15.37
2019-01-13T01:11:25.256Z,17.73
2019-01-13T01:13:55.600Z,14.30
2019-01-13T01:16:26.039Z,14.00
2019-01-13T01:18:56.383Z,14.90
2019-01-13T01:21:26.727Z,18.63
2019-01-13T01:23:57.079Z,14.93
2019-01-13T01:26:28.407Z,12.73
2019-01-13T01:28:58.743Z,14.73
2019-01-13T01:31:29.079Z,21.73
2019-01-13T01:33:59.414Z,14.70
2019-01-13T01:36:29.855Z,12.80
2019-01-13T01:39:00.265Z,12.13
2019-01-13T01:41:30.705Z,14.13
2019-01-13T01:44:01.058Z,14.73
2019-01-13T01:46:31.424Z,17.50
2019-01-13T01:49:01.763Z,15.43
2019-01-13T01:51:32.479Z,13.07
2019-01-13T01:54:02.832Z,10.87
2019-01-13T01:56:33.176Z,15.00
2019-01-13T01:59:02.866Z,13.50
2019-01-13T02:01:33.111Z,11.20
2019-01-13T02:04:03.458Z,13.23
2019-01-13T02:06:33.907Z,15.07
2019-01-13T02:09:06.178Z,12.10
2019-01-13T02:11:36.511Z,13.73
2019-01-13T02:14:07.819Z,13.90
2019-01-13T02:16:38.152Z,12.70
2019-01-13T02:19:08.592Z,16.20
2019-01-13T02:21:38.959Z,17.97
2019-01-13T02:24:09.403Z,12.10
2019-01-13T02:26:39.736Z,10.10
2019-01-13T02:29:10.080Z,18.03
2019-01-13T02:31:40.421Z,14.00
2019-01-13T02:34:10.752Z,13.70
2019-01-13T02:36:41.116Z,10.93
2019-01-13T02:39:11.447Z,11.87
2019-01-13T02:41:41.948Z,11.67
2019-01-13T02:44:12.279Z,19.23
2019-01-13T02:46:42.612Z,16.97
2019-01-13T02:49:12.328Z,11.97
2019-01-13T02:51:42.583Z,12.47
2019-01-13T02:54:12.359Z,6.63
2019-01-13T02:56:43.996Z,8.83
2019-01-13T02:59:14.571Z,12.77
2019-01-13T03:01:44.912Z,15.13
2019-01-13T03:04:15.249Z,12.53
2019-01-13T03:06:45.587Z,14.10
2019-01-13T03:09:15.988Z,12.23
2019-01-13T03:11:46.323Z,11.37
2019-01-13T03:14:16.048Z,9.10
2019-01-13T03:16:46.360Z,12.27
2019-01-13T03:19:16.731Z,11.90
2019-01-13T03:21:47.216Z,10.73
2019-01-13T03:24:17.660Z,14.17
2019-01-13T03:26:48.000Z,10.07
2019-01-13T03:29:18.380Z,7.83
2019-01-13T03:31:48.718Z,6.87
2019-01-13T03:34:19.114Z,8.00
2019-01-13T03:36:49.550Z,7.97
2019-01-13T03:39:19.881Z,9.80
2019-01-13T03:41:50.387Z,13.90
2019-01-13T03:44:20.724Z,8.13
2019-01-13T03:46:51.115Z,6.00
2019-01-13T03:49:21.455Z,7.47
2019-01-13T03:51:51.796Z,8.17
2019-01-13T03:54:22.203Z,7.20
2019-01-13T03:56:52.811Z,9.60
2019-01-13T03:59:23.215Z,6.23
2019-01-13T04:01:53.585Z,5.60
2019-01-13T04:04:23.920Z,6.30
2019-01-13T04:06:54.268Z,4.60
2019-01-13T04:09:24.647Z,5.20
2019-01-13T04:11:54.971Z,8.33
2019-01-13T04:14:25.331Z,4.47
2019-01-13T04:16:57.239Z,8.33
2019-01-13T04:19:27.602Z,9.07
2019-01-13T04:21:57.939Z,13.63
2019-01-13T04:24:28.307Z,7.77
2019-01-13T04:26:58.648Z,5.03
2019-01-13T04:29:29.019Z,5.97
2019-01-13T04:31:59.357Z,8.53
2019-01-13T04:34:29.797Z,10.80
2019-01-13T04:37:00.125Z,10.30
2019-01-13T04:39:30.492Z,4.63
2019-01-13T04:42:00.817Z,6.57
2019-01-13T04:44:31.179Z,6.47
2019-01-13T04:47:01.525Z,7.60
2019-01-13T04:49:31.952Z,8.13
2019-01-13T04:52:02.290Z,8.10
2019-01-13T04:54:32.707Z,12.63
2019-01-13T04:57:03.027Z,4.77
2019-01-13T04:59:33.405Z,7.23
2019-01-13T05:02:03.804Z,5.97
2019-01-13T05:04:34.143Z,5.77
2019-01-13T05:07:04.550Z,6.83
2019-01-13T05:09:34.958Z,4.00
2019-01-13T05:12:05.473Z,3.40
2019-01-13T05:14:35.824Z,6.67
2019-01-13T05:17:06.156Z,5.90
2019-01-13T05:19:36.479Z,3.30
2019-01-13T05:22:06.805Z,3.37
2019-01-13T05:24:37.129Z,5.20
2019-01-13T05:27:07.468Z,3.83
2019-01-13T05:29:38.010Z,9.83
2019-01-13T05:32:08.511Z,4.17
2019-01-13T05:34:38.856Z,2.73
2019-01-13T05:37:09.260Z,3.80
2019-01-13T05:39:39.595Z,3.03
2019-01-13T05:42:09.921Z,2.10
2019-01-13T05:44:40.286Z,2.70
2019-01-13T05:47:10.631Z,5.00
2019-01-13T05:49:41.047Z,2.87
2019-01-13T05:52:11.415Z,4.20
2019-01-13T05:54:41.751Z,2.00
2019-01-13T05:57:12.116Z,2.50
2019-01-13T06:04:25.829Z,2.77
2019-01-13T06:07:44.605Z,3.43
2019-01-13T08:05:29.838Z,2.90
2019-01-13T08:24:29.180Z,2.57
2019-01-13T08:47:37.420Z,10.20
2019-01-13T08:50:46.767Z,65.37
2019-01-13T08:56:34.123Z,27.20
2019-01-13T08:59:03.855Z,7.47
2019-01-13T09:01:34.126Z,9.33
2019-01-13T09:04:07.108Z,5.50
2019-01-13T09:06:38.495Z,2.77
2019-01-13T09:09:09.432Z,8.10
2019-01-13T09:11:39.852Z,7.37
2019-01-13T09:14:10.287Z,3.87
2019-01-13T09:16:40.696Z,2.80
2019-01-13T09:19:11.056Z,4.27
2019-01-13T09:21:41.424Z,4.03
2019-01-13T09:24:11.755Z,6.33
2019-01-13T09:26:42.128Z,5.13
2019-01-13T09:29:12.532Z,9.73
2019-01-13T09:31:42.896Z,7.43
2019-01-13T09:34:13.239Z,3.50
2019-01-13T09:36:43.607Z,4.10
2019-01-13T09:39:13.943Z,6.20
2019-01-13T09:41:44.283Z,6.67
2019-01-13T09:44:14.623Z,4.93
2019-01-13T09:46:44.989Z,8.13
2019-01-13T09:49:15.327Z,9.97
2019-01-13T09:51:45.659Z,3.70
2019-01-13T09:54:15.999Z,2.93
2019-01-13T09:56:45.791Z,3.97
2019-01-13T09:59:16.035Z,4.37
2019-01-13T10:01:46.376Z,5.10
2019-01-13T10:04:16.716Z,4.27
2019-01-13T10:06:47.055Z,8.07
2019-01-13T10:09:17.387Z,8.67
2019-01-13T10:11:47.795Z,5.77
2019-01-13T10:14:18.131Z,6.30
2019-01-13T10:16:48.499Z,7.60
2019-01-13T10:19:18.855Z,6.73
2019-01-13T10:21:49.187Z,5.03
2019-01-13T10:24:19.587Z,10.17
2019-01-13T10:26:49.927Z,6.93
2019-01-13T10:29:20.317Z,8.20
2019-01-13T10:31:50.655Z,5.57
2019-01-13T10:34:22.099Z,10.60
2019-01-13T10:36:53.479Z,10.00
2019-01-13T10:39:23.880Z,10.07
2019-01-13T10:41:54.219Z,11.53
2019-01-13T10:44:24.583Z,7.13
2019-01-13T10:46:54.919Z,9.40
2019-01-13T10:49:25.256Z,9.03
2019-01-13T10:51:55.626Z,11.73
2019-01-13T10:54:25.334Z,9.40
2019-01-13T10:56:55.619Z,8.70
2019-01-13T10:59:25.312Z,11.80
2019-01-13T11:01:55.592Z,9.20
2019-01-13T11:04:25.283Z,8.37
2019-01-13T11:06:55.567Z,8.83
2019-01-13T11:09:25.263Z,21.60
2019-01-13T11:11:55.550Z,9.77
2019-01-13T11:14:25.239Z,9.17
2019-01-13T11:16:55.528Z,6.80
2019-01-13T11:19:26.232Z,8.30
2019-01-13T11:21:56.792Z,7.13
2019-01-13T11:24:27.127Z,8.83
2019-01-13T11:26:57.503Z,6.83
2019-01-13T11:29:32.695Z,11.57
2019-01-13T11:31:59.167Z,5.73
2019-01-13T11:34:29.524Z,6.33
2019-01-13T11:36:59.909Z,8.07
2019-01-13T11:39:30.319Z,6.37
2019-01-13T11:42:00.747Z,6.47
2019-01-13T11:44:31.096Z,8.63
2019-01-13T11:47:01.427Z,9.33
2019-01-13T11:49:31.794Z,8.03
2019-01-13T11:52:02.140Z,5.63
2019-01-13T11:54:32.515Z,5.20
2019-01-13T11:57:02.904Z,8.10
2019-01-13T11:59:33.399Z,8.40
2019-01-13T12:02:04.177Z,10.30
2019-01-13T12:04:34.523Z,6.70
2019-01-13T12:07:04.955Z,10.63
2019-01-13T12:09:35.591Z,10.67
2019-01-13T12:12:06.144Z,10.87
2019-01-13T12:14:35.924Z,7.20
2019-01-13T12:17:07.788Z,5.63
2019-01-13T12:19:38.123Z,7.83
2019-01-13T12:22:08.624Z,4.83
2019-01-13T12:24:38.343Z,8.43
2019-01-13T12:27:08.084Z,9.07
2019-01-13T12:29:37.755Z,14.23
2019-01-13T12:32:08.071Z,7.37
2019-01-13T12:34:37.775Z,4.80
2019-01-13T12:37:08.532Z,8.27
2019-01-13T12:39:38.960Z,7.80
2019-01-13T12:42:09.324Z,5.80
2019-01-13T12:44:39.792Z,8.97
2019-01-13T12:47:10.283Z,8.13
2019-01-13T12:49:40.737Z,9.20
2019-01-13T12:52:11.164Z,11.63
2019-01-13T12:54:41.650Z,10.67
2019-01-13T12:57:11.995Z,7.30
2019-01-13T12:59:42.450Z,6.30
2019-01-13T13:02:12.872Z,5.93
2019-01-13T13:04:43.319Z,10.00
2019-01-13T13:07:13.781Z,10.03
2019-01-13T13:09:44.266Z,11.70
2019-01-13T13:12:14.816Z,7.93
2019-01-13T13:14:45.251Z,8.10
2019-01-13T13:17:15.667Z,11.47
2019-01-13T13:19:46.016Z,8.13
2019-01-13T13:22:16.447Z,8.43
2019-01-13T13:24:46.784Z,13.00
2019-01-13T13:27:17.119Z,8.30
2019-01-13T13:29:49.659Z,7.30
2019-01-13T13:32:22.150Z,11.57
2019-01-13T13:35:04.646Z,8.00
2019-01-13T13:55:37.798Z,7.57
2019-01-13T13:58:08.143Z,10.00
2019-01-13T14:01:04.261Z,8.67
2019-01-13T14:03:36.684Z,9.70
2019-01-13T14:06:40.465Z,8.67
2019-01-13T14:10:01.522Z,13.47
2019-01-13T14:30:57.312Z,11.67
2019-01-13T14:33:32.904Z,11.70
2019-01-13T14:49:57.659Z,9.20
2019-01-13T15:01:46.869Z,4.63
2019-01-13T15:04:19.015Z,3.37
2019-01-13T15:09:46.611Z,8.47
2019-01-13T15:12:16.951Z,8.10
2019-01-13T15:14:46.664Z,8.00
2019-01-13T15:17:20.024Z,7.60
2019-01-13T15:19:50.500Z,12.30
2019-01-13T15:22:20.988Z,11.03
2019-01-13T15:28:53.490Z,10.20
2019-01-13T15:31:32.670Z,4.90
2019-01-13T15:40:26.758Z,8.07
2019-01-13T15:42:57.032Z,6.23
2019-01-13T15:45:28.191Z,8.83
2019-01-13T15:47:58.440Z,7.00
2019-01-13T15:53:31.507Z,8.33
2019-01-13T15:56:02.924Z,7.23
2019-01-13T15:58:32.671Z,9.07
2019-01-13T16:01:06.704Z,9.20
2019-01-13T16:03:39.884Z,5.20
2019-01-13T16:07:08.852Z,9.03
2019-01-13T16:10:11.782Z,10.20
2019-01-13T16:13:06.351Z,8.97
2019-01-13T16:15:54.561Z,10.03
2019-01-13T16:22:24.213Z,8.47
2019-01-13T16:24:53.911Z,8.27
2019-01-13T16:27:27.634Z,6.80
2019-01-13T16:30:02.219Z,10.07
2019-01-13T16:32:37.294Z,19.43
2019-01-13T16:35:23.054Z,9.40
2019-01-13T16:42:15.379Z,8.13
2019-01-13T16:44:51.816Z,9.93
2019-01-13T16:56:04.628Z,8.73
2019-01-13T17:04:28.627Z,8.20
2019-01-13T17:06:57.884Z,8.80
2019-01-13T17:09:29.976Z,8.13
2019-01-13T17:12:20.390Z,8.73
2019-01-13T17:18:01.916Z,10.63
2019-01-13T17:20:36.983Z,15.07
2019-01-13T17:27:01.025Z,13.53
2019-01-13T17:33:27.343Z,12.43
2019-01-13T17:53:54.988Z,18.40
2019-01-13T17:57:04.155Z,15.60
2019-01-13T17:59:35.571Z,19.77
2019-01-13T18:02:05.831Z,15.00
2019-01-13T18:04:42.906Z,16.17
2019-01-13T18:07:08.258Z,14.40
2019-01-13T18:09:38.085Z,15.13
2019-01-13T18:12:08.436Z,15.73
2019-01-13T18:14:38.283Z,14.73
2019-01-13T18:17:08.548Z,14.03
2019-01-13T18:19:38.995Z,14.77
2019-01-13T18:22:09.853Z,14.43
2019-01-13T18:24:39.723Z,12.30
2019-01-13T18:27:10.060Z,12.37
2019-01-13T18:29:40.520Z,12.63
2019-01-13T18:32:10.876Z,11.17
2019-01-13T18:34:41.224Z,11.07
2019-01-13T18:37:11.671Z,14.00
2019-01-13T18:39:42.019Z,12.20
2019-01-13T18:42:12.453Z,10.63
2019-01-13T18:44:42.859Z,13.30
2019-01-13T18:47:13.252Z,15.30
2019-01-13T18:49:43.868Z,18.40
2019-01-13T18:52:13.690Z,16.60
2019-01-13T18:54:43.377Z,15.17
2019-01-13T18:57:13.636Z,13.80
2019-01-13T18:59:44.049Z,15.70
2019-01-13T19:02:14.443Z,14.30
2019-01-13T19:04:44.167Z,23.70
2019-01-13T19:07:14.412Z,19.20
2019-01-13T19:09:44.778Z,12.83
2019-01-13T19:12:15.116Z,16.97
2019-01-13T19:14:49.564Z,12.23
2019-01-13T19:17:22.155Z,13.70
2019-01-13T19:19:53.152Z,12.10
2019-01-13T19:22:23.968Z,12.40
2019-01-13T19:25:29.590Z,12.40
2019-01-13T19:28:00.031Z,14.00
2019-01-13T19:30:29.795Z,14.37
2019-01-13T19:33:00.128Z,12.10
2019-01-13T19:35:29.949Z,15.03
2019-01-13T19:38:00.256Z,16.73
2019-01-13T19:40:30.739Z,15.30
2019-01-13T19:43:01.103Z,11.23
2019-01-13T19:45:32.508Z,12.60
2019-01-13T19:48:03.007Z,11.60
2019-01-13T19:50:33.436Z,14.27
2019-01-13T19:53:03.773Z,14.13
2019-01-13T19:55:34.166Z,10.63
2019-01-13T19:58:04.663Z,9.83
2019-01-13T20:00:38.547Z,10.97
2019-01-13T20:03:09.217Z,12.70
2019-01-13T20:05:39.655Z,14.77
2019-01-13T20:08:09.359Z,13.00
2019-01-13T20:10:39.608Z,9.80
2019-01-13T20:13:09.960Z,9.10
2019-01-13T20:15:39.651Z,9.10
2019-01-13T20:18:09.928Z,6.33
2019-01-13T20:20:41.172Z,7.27
2019-01-13T20:23:11.620Z,7.90
2019-01-13T20:25:41.344Z,5.60
2019-01-13T20:28:11.473Z,6.20
2019-01-13T20:30:42.103Z,5.90
2019-01-13T20:33:12.564Z,3.07
2019-01-13T20:35:43.488Z,2.40
2019-01-13T20:38:13.829Z,2.77
2019-01-13T20:40:44.559Z,2.60
2019-01-13T20:43:15.007Z,2.43
2019-01-13T20:45:44.768Z,1.90
2019-01-13T20:48:15.115Z,3.10
2019-01-13T20:50:44.899Z,1.50
2019-01-13T20:53:14.575Z,3.57
2019-01-13T20:55:45.209Z,1.60
2019-01-13T20:58:15.542Z,1.40
2019-01-13T21:00:45.951Z,1.77
2019-01-13T21:03:16.345Z,2.00
2019-01-13T21:05:46.819Z,1.60
2019-01-13T21:08:16.588Z,1.10
2019-01-13T21:10:46.843Z,2.73
2019-01-13T21:13:17.263Z,3.53
2019-01-13T21:15:47.624Z,3.90
2019-01-13T21:18:18.025Z,2.73
2019-01-13T21:20:48.415Z,2.33
2019-01-13T21:23:18.140Z,4.73
2019-01-13T21:25:49.752Z,2.63
2019-01-13T21:28:20.136Z,3.67
2019-01-13T21:30:51.724Z,3.87
2019-01-13T21:33:22.092Z,2.50
2019-01-13T21:35:51.874Z,2.77
2019-01-13T21:38:21.492Z,3.83
2019-01-13T21:40:51.855Z,2.40
2019-01-13T21:43:22.211Z,3.23
2019-01-13T21:45:52.667Z,5.33
2019-01-13T21:48:22.996Z,4.60
2019-01-13T21:50:53.391Z,3.87
2019-01-13T21:53:23.771Z,3.20
2019-01-13T21:55:55.132Z,4.30
2019-01-13T21:58:24.822Z,5.13
2019-01-13T22:00:55.120Z,2.90
2019-01-13T22:03:25.522Z,3.67
2019-01-13T22:05:55.930Z,3.17
2019-01-13T22:08:26.357Z,3.23
2019-01-13T22:10:56.708Z,5.00
2019-01-13T22:13:27.127Z,2.97
2019-01-13T22:15:57.497Z,2.50
2019-01-13T22:18:27.838Z,4.37
2019-01-13T22:20:58.192Z,3.43
2019-01-13T22:23:28.567Z,3.47
2019-01-13T22:25:58.937Z,2.27
2019-01-13T22:28:29.381Z,3.13
2019-01-13T22:30:59.727Z,3.87
2019-01-13T22:33:30.139Z,2.17
2019-01-13T22:36:00.563Z,5.23
2019-01-13T22:38:30.979Z,3.70
2019-01-13T22:41:01.362Z,6.57
2019-01-13T22:43:31.956Z,4.07
2019-01-13T22:46:03.086Z,2.90
2019-01-13T22:48:33.524Z,5.80
2019-01-13T22:51:03.894Z,5.77
2019-01-13T22:53:34.311Z,3.87
2019-01-13T22:56:04.753Z,5.40
2019-01-13T22:58:35.104Z,4.80
2019-01-13T23:01:32.980Z,3.03
2019-01-13T23:04:10.925Z,8.50
2019-01-13T23:06:41.372Z,6.20
2019-01-13T23:09:12.780Z,3.10
2019-01-13T23:11:43.598Z,4.87
2019-01-13T23:14:15.431Z,3.33
2019-01-13T23:16:45.769Z,4.40
2019-01-13T23:19:16.105Z,6.73
2019-01-13T23:21:46.431Z,9.63
2019-01-13T23:24:16.815Z,5.30
2019-01-13T23:26:47.227Z,7.13
2019-01-13T23:29:17.559Z,7.87
2019-01-13T23:31:47.927Z,8.27
2019-01-13T23:34:18.264Z,5.23
2019-01-13T23:36:48.920Z,5.43
2019-01-13T23:39:19.255Z,4.73
2019-01-13T23:41:49.623Z,3.70
2019-01-13T23:44:19.990Z,4.10
2019-01-13T23:46:50.352Z,8.13
2019-01-13T23:49:20.789Z,4.70
2019-01-13T23:51:51.124Z,3.17
2019-01-13T23:54:21.491Z,4.90
2019-01-13T23:56:52.003Z,5.13
2019-01-13T23:59:22.367Z,3.03
